AirNav   Free SoundLink Mini II speaker
 
 302 users online  

08K Harvard State Airport
Harvard, Nebraska, USA

GOING TO HARVARD?


FAA INFORMATION EFFECTIVE 26 MARCH 2020

Location

FAA Identifier: 08K
Lat/Long: 40-39-04.8000N 098-04-47.6000W
40-39.080000N 098-04.793333W
40.6513333,-98.0798889
(estimated)
Elevation: 1814.5 ft. / 553.1 m (surveyed)
Variation: 05E (2010)
From city: 2 miles NE of HARVARD, NE
Time zone: UTC -5 (UTC -6 during Standard Time)
Zip code: 68944

Airport Operations

Airport use: Open to the public
Activation date: 04/1944
Control tower: no
ARTCC: MINNEAPOLIS CENTER
FSS: COLUMBUS FLIGHT SERVICE STATION
NOTAMs facility: OLU (NOTAM-D service available)
Attendance: UNATNDD
CALL AIRPORT MANAGER 402-268-4521 OR 402-772-3291 CELL 402-266-1890
Wind indicator: lighted
Segmented circle: yes
Lights: ACTVT MIRL RY 17/35 - CTAF.
Beacon: white-green (lighted land airport)
Operates sunset to sunrise.

Airport Communications

CTAF: 122.9
WX AWOS-3 at AUH (15 nm N): 121.225 (402-694-5472)
WX ASOS at HSI (16 nm W): 120.525 (402-463-4029)
  • APCH/DEP SVC PRVDD BY MINNEAPOLIS ARTCC ON FREQS 119.4/278.8 (HASTINGS RCAG).

Nearby radio navigation aids

VOR radial/distance  VOR name  Freq  Var
HSIr073/16.2HASTINGS VOR/DME108.8007E
GRIr145/22.6GRAND ISLAND VOR/DME112.0007E

 
NDB name  Hdg/Dist  Freq  Var  ID
BEKLOF272/23.639207EFMZ ..-. -- --..
YORK229/25.725706EJYR .--- -.-- .-.

Airport Services

Fuel available: 100LL
CALL AMGR FOR SVC.
Parking: hangars and tiedowns
Airframe service: NONE
Powerplant service: NONE
Bottled oxygen: NONE
Bulk oxygen: NONE

Runway Information

Runway 17/35

Dimensions: 3722 x 60 ft. / 1134 x 18 m
Surface: asphalt, in good condition
Runway edge lights: medium intensity
RUNWAY 17  RUNWAY 35
Latitude: 40-39.341650N40-38.728752N
Longitude: 098-04.952232W098-04.945277W
Elevation: 1814.1 ft.1806.2 ft.
Traffic pattern: leftleft
Runway heading: 175 magnetic, 180 true355 magnetic, 360 true
Markings: nonprecision, in good conditionnonprecision, in good condition
Touchdown point: yes, no lightsyes, no lights

Runway 14/32

Dimensions: 3873 x 150 ft. / 1180 x 46 m
Surface: turf, in fair condition
RUNWAY 14  RUNWAY 32
Latitude: 40-39.388315N40-38.857648N
Longitude: 098-04.876508W098-04.412173W
Elevation: 1810.1 ft.1808.4 ft.
Traffic pattern: leftleft
Runway heading: 142 magnetic, 147 true322 magnetic, 327 true
Touchdown point: yes, no lightsyes, no lights

Airport Ownership and Management from official FAA records

Ownership: Publicly-owned
Owner: NEBRASKA DEPARTMENT OF AERONAUTICS
3431 AVIATION ROAD, SUITE 150
LINCOLN, NE 68501-2088
Phone 402-471-2371
Manager: TIM KRIENERT
13 AIRBASE ROAD, FAIRMONT STATE AIRFIELD
FAIRMONT, NE 68354-4057
Phone (402) 268-4521

Airport Operational Statistics

Aircraft based on the field: 11
Single engine airplanes: 11
    
Aircraft operations: avg 96/week *
92% local general aviation
6% transient general aviation
2% military
* for 12-month period ending 15 April 2019

Additional Remarks

FOR CD CTC MINNEAPOLIS ARTCC AT 651-463-5588.

Instrument Procedures

NOTE: All procedures below are presented as PDF files. If you need a reader for these files, you should download the free Adobe Reader.

NOT FOR NAVIGATION. Please procure official charts for flight.
FAA instrument procedures published for use from 26 March 2020 at 0901Z to 23 April 2020 at 0900Z.

 
IAPs - Instrument Approach Procedures
RNAV (GPS) RWY 17   download (186KB)
RNAV (GPS) RWY 35   download (172KB)
NOTE: Special Take-Off Minimums/Departure Procedures apply   download (147KB)

Other nearby airports with instrument procedures:

KAUH - Aurora Municipal Airport - Al Potter Field (15 nm N)
KHSI - Hastings Municipal Airport (16 nm W)
KGRI - Central Nebraska Regional Airport (22 nm NW)
KFMZ - Fairmont State Airfield (23 nm E)
KJYR - York Municipal Airport (25 nm NE)
 
Loc | Ops | Rwys | IFR | FBO | Links
Com | Nav | Svcs | Stats | Notes

Silverhawk Aviation, Inc.
AirBoss

 
Area around 08K (Harvard State Airport)
 
Road maps at: MapQuest Bing Google
 
Aerial photo
No photo
 
Sectional chart

 
Airport distance calculator
Flying to Harvard State Airport? Find the distance to fly.

From to 08K

Sunrise and sunset
Times for 02-Apr-2020
 Local
(UTC-5)
 Zulu
(UTC)
Morning civil twilight06:4611:46
Sunrise07:1412:14
Sunset19:5800:58
Evening civil twilight20:2501:25

Current date and time
Zulu (UTC)  02-Apr-2020 07:51:47
Local (UTC-5)  02-Apr-2020 02:51:47
 
METAR
KAUH 
14nm N 
020735Z AUTO 15008KT 10SM SCT060 13/08 A2974 RMK AO2 T01250075
KHSI 
16nm W 
020653Z AUTO 12007KT 10SM CLR 11/06 A2974 RMK AO2 SLP061 T01110056
KGRI 
22nm NW 
020653Z AUTO 15013KT 8SM SCT065 13/06 A2974 RMK AO2 SLP066 T01330056
KJYR 
26nm NE 
020735Z AUTO 15011KT 10SM CLR 12/06 A2974 RMK AO2
TAF
KGRI 
22nm NW 
020523Z 0206/0306 13011KT P6SM BKN100 FM021000 07007KT P6SM VCSH BKN019 FM021300 02011KT P6SM VCSH OVC006 FM021700 36014G23KT P6SM VCSH OVC008 FM030300 34016G24KT 6SM -FZDZ OVC015
NOTAMs
Click for the latest NOTAMs
NOTAMs are issued by the DoD/FAA and will open in a separate window not controlled by AirNav.

 

 
 

FBO, Fuel Providers, and Aircraft Ground Support

  
 Business Name 
 
 Contact 
 
 Services / Description 
 
Fuel Prices
 
Comments
  
Harvard State Airport 402-772-3291
no information available

If you are affiliated with Harvard State Airport and would like to show here your services, contact info, web link, logo, and more, click here
100LL
FS $5.60 
 Updated 12-Nov-2015
 
   write
FS=Full service
Update Fuel Prices
 

Would you like to see your business listed on this page?

 If your business provides an interesting product or service to pilots, flight crews, aircraft, or users of the Harvard State Airport, you should consider listing it here.  To start the listing process, click on the button below
 
Add a business
 

Other Pages about Harvard State Airport

Update a link
 
Copyright © AirNav, LLC. All rights reserved. Privacy Policy  Contact